Time;durP1;ratioP1;P1;durP2;ratioP2;P2;SDS_P1;SDS_P2;PMS_P1;PMS_P2;Temp;Humidity;BMP_temperature;BMP_pressure;BME280_temperature;BME280_humidity;BME280_pressure;Samples;Min_cycle;Max_cycle;Signal;HPM_P1;HPM_P2
2021/06/16 00:02:07;;;;;;;10.58;6.53;;;;;;;16.98;100.00;100352.34;1797845;78;21564;-87
2021/06/16 00:04:34;;;;;;;11.30;7.22;;;;;;;16.96;100.00;100355.13;1783738;77;20991;-86
2021/06/16 00:07:02;;;;;;;7.92;6.80;;;;;;;16.92;100.00;100351.16;1786298;78;21504;-87
2021/06/16 00:09:29;;;;;;;6.42;5.92;;;;;;;16.88;100.00;100345.41;1789079;77;21500;-88
2021/06/16 00:11:56;;;;;;;8.20;6.10;;;;;;;16.89;100.00;100347.53;1784913;78;21416;-85
2021/06/16 00:14:28;;;;;;;6.17;5.58;;;;;;;16.87;100.00;100346.39;1816269;77;20902;-85
2021/06/16 00:16:56;;;;;;;9.23;5.85;;;;;;;16.90;100.00;100347.86;1789640;77;20976;-87
2021/06/16 00:19:23;;;;;;;7.83;5.80;;;;;;;16.91;100.00;100349.98;1822186;77;21392;-87
2021/06/16 00:21:52;;;;;;;6.17;5.58;;;;;;;16.89;100.00;100351.47;1835440;77;21482;-88
2021/06/16 00:24:20;;;;;;;6.25;5.75;;;;;;;16.92;100.00;100348.53;1824971;77;21069;-88
2021/06/16 00:26:48;;;;;;;6.50;5.90;;;;;;;16.92;100.00;100349.84;1802239;78;21309;-88
2021/06/16 00:29:16;;;;;;;6.58;5.97;;;;;;;16.97;100.00;100352.83;1802282;78;21046;-86
2021/06/16 00:31:43;;;;;;;9.78;5.58;;;;;;;16.96;100.00;100357.75;1802413;78;21081;-86
2021/06/16 00:34:10;;;;;;;5.92;5.37;;;;;;;16.96;100.00;100363.52;1802153;78;21033;-86
2021/06/16 00:36:38;;;;;;;8.18;5.47;;;;;;;16.99;100.00;100361.38;1802380;78;21140;-86
2021/06/16 00:39:07;;;;;;;9.40;5.83;;;;;;;17.00;100.00;100351.19;1802102;78;20984;-87
2021/06/16 00:41:34;;;;;;;7.30;5.45;;;;;;;17.06;100.00;100353.67;1802301;78;21026;-87
2021/06/16 00:44:01;;;;;;;9.63;5.53;;;;;;;17.05;100.00;100356.44;1802069;78;21037;-88
2021/06/16 00:46:28;;;;;;;5.70;5.20;;;;;;;17.02;100.00;100353.14;1802513;78;21016;-87
2021/06/16 00:48:56;;;;;;;7.50;5.20;;;;;;;17.05;100.00;100349.39;1802044;78;21104;-87
2021/06/16 00:51:25;;;;;;;5.67;4.97;;;;;;;17.05;100.00;100350.70;1802491;78;21054;-87
2021/06/16 00:53:52;;;;;;;5.60;5.08;;;;;;;17.07;100.00;100353.97;1801711;78;21093;-86
2021/06/16 00:56:20;;;;;;;6.05;5.50;;;;;;;17.11;100.00;100355.30;1802214;78;21042;-85
2021/06/16 00:58:47;;;;;;;5.65;5.17;;;;;;;17.07;100.00;100352.66;1802420;78;21046;-87
2021/06/16 01:01:24;;;;;;;18.87;10.30;;;;;;;17.02;100.00;100351.02;1825317;78;21039;-86
2021/06/16 01:04:09;;;;;;;7.33;6.33;;;;;;;16.98;100.00;100349.72;1825111;77;21073;-85
2021/06/16 01:06:57;;;;;;;6.30;5.80;;;;;;;16.97;100.00;100354.14;1824718;77;21070;-88
2021/06/16 01:09:32;;;;;;;6.90;5.72;;;;;;;16.90;100.00;100358.89;1802153;78;21045;-87
2021/06/16 01:12:21;;;;;;;11.90;5.95;;;;;;;16.88;100.00;100361.66;1825116;78;21003;-87
2021/06/16 01:14:56;;;;;;;11.18;6.37;;;;;;;16.89;100.00;100352.79;1802316;78;21052;-86
2021/06/16 01:17:44;;;;;;;9.40;5.25;;;;;;;16.90;100.00;100351.80;1822146;78;20991;-88
2021/06/16 01:20:35;;;;;;;6.15;5.55;;;;;;;16.93;100.00;100352.00;1824810;78;21038;-86
2021/06/16 01:23:10;;;;;;;6.03;4.95;;;;;;;16.94;100.00;100350.54;1802683;78;21003;-87
2021/06/16 01:26:04;;;;;;;5.67;5.08;;;;;;;16.93;100.00;100348.05;1823329;78;21062;-91
2021/06/16 01:28:44;;;;;;;6.17;5.37;;;;;;;16.88;100.00;100341.46;1825729;77;21035;-87
2021/06/16 01:31:15;;;;;;;6.20;4.75;;;;;;;16.83;100.00;100347.68;1802371;78;22098;-87
2021/06/16 01:33:45;;;;;;;7.95;5.62;;;;;;;16.80;100.00;100341.45;1819585;78;20994;-88
2021/06/16 01:36:13;;;;;;;4.90;4.50;;;;;;;16.75;100.00;100352.12;1802331;78;21069;-88
2021/06/16 01:38:45;;;;;;;5.58;4.78;;;;;;;16.66;100.00;100358.68;1800821;78;21023;-88
2021/06/16 01:41:14;;;;;;;8.03;5.33;;;;;;;16.62;100.00;100359.16;1783735;77;21772;-88
2021/06/16 01:43:41;;;;;;;8.33;5.00;;;;;;;16.58;100.00;100361.28;1783726;79;21025;-87
2021/06/16 01:46:10;;;;;;;6.70;4.87;;;;;;;16.54;100.00;100358.16;1808400;78;21025;-90
2021/06/16 01:48:40;;;;;;;5.22;4.83;;;;;;;16.51;100.00;100363.73;1784138;78;21132;-87
2021/06/16 01:51:09;;;;;;;8.30;5.08;;;;;;;16.47;100.00;100361.10;1790406;77;21049;-88
2021/06/16 01:53:38;;;;;;;8.33;5.33;;;;;;;16.45;100.00;100366.19;1846336;77;21124;-87
2021/06/16 01:56:07;;;;;;;6.67;5.03;;;;;;;16.40;100.00;100356.97;1822976;77;21062;-86
2021/06/16 01:58:34;;;;;;;6.97;5.30;;;;;;;16.38;100.00;100359.42;1822869;77;21011;-86
2021/06/16 02:01:02;;;;;;;11.12;5.62;;;;;;;16.41;100.00;100357.81;1822705;77;20992;-89
2021/06/16 02:03:30;;;;;;;8.28;5.50;;;;;;;16.42;100.00;100354.67;1846232;77;20975;-87
2021/06/16 02:06:01;;;;;;;7.10;5.70;;;;;;;16.39;100.00;100357.95;1846268;77;21134;-87
2021/06/16 02:08:31;;;;;;;8.13;5.08;;;;;;;16.38;100.00;100361.55;1822748;77;20999;-86
2021/06/16 02:11:01;;;;;;;7.93;5.10;;;;;;;16.42;100.00;100358.14;1823029;77;21019;-88
2021/06/16 02:13:37;;;;;;;9.53;5.10;;;;;;;16.49;100.00;100361.77;1817831;78;21000;-87
2021/06/16 02:16:12;;;;;;;6.05;4.90;;;;;;;16.59;100.00;100360.78;1804542;78;21045;-86
2021/06/16 02:18:50;;;;;;;9.75;5.30;;;;;;;16.68;100.00;100362.45;1783208;79;21073;-87
2021/06/16 02:21:20;;;;;;;6.45;4.55;;;;;;;16.70;100.00;100354.73;1787330;78;21010;-88
2021/06/16 02:23:49;;;;;;;8.05;4.72;;;;;;;16.75;100.00;100360.00;1793831;78;21085;-84
2021/06/16 02:26:18;;;;;;;6.83;4.25;;;;;;;16.79;100.00;100354.73;1776739;79;21041;-85
2021/06/16 02:28:45;;;;;;;10.55;4.90;;;;;;;16.86;100.00;100359.20;1792118;78;21035;-86
2021/06/16 02:31:13;;;;;;;7.00;5.10;;;;;;;16.94;100.00;100371.58;1802404;78;21877;-86
2021/06/16 02:33:40;;;;;;;5.05;4.65;;;;;;;16.97;100.00;100378.31;1786097;78;21017;-85
2021/06/16 02:36:10;;;;;;;12.70;5.47;;;;;;;16.96;100.00;100380.11;1788954;78;21561;-85
2021/06/16 02:38:41;;;;;;;10.05;5.50;;;;;;;17.00;100.00;100391.96;1758020;79;21060;-87
2021/06/16 02:41:12;;;;;;;11.30;5.45;;;;;;;17.18;100.00;100396.25;1790458;77;20985;-91
2021/06/16 02:43:41;;;;;;;7.97;4.83;;;;;;;17.34;100.00;100400.20;1785753;77;21021;-88
2021/06/16 02:46:11;;;;;;;8.63;4.70;;;;;;;17.43;100.00;100408.91;1789382;77;21078;-89
2021/06/16 02:48:43;;;;;;;4.95;4.55;;;;;;;17.48;100.00;100414.98;1802646;78;21011;-87
2021/06/16 02:51:12;;;;;;;7.28;4.37;;;;;;;17.52;100.00;100418.92;1799862;78;20992;-88
2021/06/16 02:53:41;;;;;;;7.00;5.08;;;;;;;17.53;100.00;100407.91;1822776;77;21474;-87
2021/06/16 02:56:09;;;;;;;7.40;5.00;;;;;;;17.56;100.00;100405.77;1776288;79;21782;-87
2021/06/16 02:58:41;;;;;;;7.58;4.97;;;;;;;17.61;100.00;100413.17;1802987;77;21122;-87
2021/06/16 03:01:16;;;;;;;9.40;5.97;;;;;;;17.69;100.00;100416.27;1779873;77;21126;-87
2021/06/16 03:03:48;;;;;;;6.45;5.20;;;;;;;17.76;100.00;100403.60;1803871;77;21457;-91
2021/06/16 03:06:18;;;;;;;8.53;5.22;;;;;;;17.85;100.00;100400.95;1836822;77;20931;-90
2021/06/16 03:08:49;;;;;;;7.72;5.80;;;;;;;17.89;100.00;100403.08;1831192;77;21117;-87
2021/06/16 03:11:18;;;;;;;9.67;6.10;;;;;;;17.95;100.00;100395.84;1806670;77;21572;-87
2021/06/16 03:13:46;;;;;;;11.10;5.35;;;;;;;18.04;100.00;100391.88;1804882;77;21070;-88
2021/06/16 03:16:15;;;;;;;6.65;5.10;;;;;;;18.06;100.00;100387.26;1809307;77;21077;-87
2021/06/16 03:18:45;;;;;;;9.53;5.33;;;;;;;18.05;100.00;100389.05;1824124;77;21030;-88
2021/06/16 03:21:15;;;;;;;7.65;5.53;;;;;;;18.05;100.00;100382.98;1800928;77;21082;-90
2021/06/16 03:23:45;;;;;;;5.72;5.22;;;;;;;18.08;100.00;100383.94;1807763;78;21057;-87
2021/06/16 03:26:14;;;;;;;6.03;5.45;;;;;;;18.07;100.00;100387.55;1800849;77;21034;-88
2021/06/16 03:28:42;;;;;;;14.98;6.10;;;;;;;18.05;100.00;100389.56;1800216;78;21124;-88
2021/06/16 03:31:12;;;;;;;9.83;5.87;;;;;;;18.05;100.00;100401.42;1804760;77;21129;-89
2021/06/16 03:33:42;;;;;;;12.07;5.65;;;;;;;18.13;100.00;100412.74;1797687;78;21928;-88
2021/06/16 03:36:10;;;;;;;7.10;5.33;;;;;;;18.23;100.00;100411.21;1801051;77;21018;-87
2021/06/16 03:38:45;;;;;;;13.35;5.40;;;;;;;18.32;100.00;100408.06;1799371;78;21565;-88
2021/06/16 03:41:14;;;;;;;7.58;5.35;;;;;;;18.32;100.00;100406.75;1801036;78;21549;-90
2021/06/16 03:43:42;;;;;;;7.45;4.92;;;;;;;18.34;100.00;100421.91;1803619;78;20997;-88
2021/06/16 03:46:10;;;;;;;12.65;4.87;;;;;;;18.35;100.00;100426.16;1829622;77;21769;-88
2021/06/16 03:48:39;;;;;;;7.00;5.00;;;;;;;18.37;100.00;100416.27;1808108;77;21591;-88
2021/06/16 03:51:07;;;;;;;7.28;5.08;;;;;;;18.46;100.00;100426.30;1805204;78;21492;-87
2021/06/16 03:53:36;;;;;;;6.72;4.90;;;;;;;18.50;100.00;100434.17;1813083;77;21347;-88
2021/06/16 03:56:05;;;;;;;9.70;4.70;;;;;;;18.52;100.00;100427.41;1817455;77;21042;-88
2021/06/16 03:58:36;;;;;;;7.42;4.70;;;;;;;18.57;100.00;100420.63;1805444;77;21068;-89
2021/06/16 04:01:08;;;;;;;8.05;5.35;;;;;;;18.64;100.00;100427.36;1803788;78;21062;-88
2021/06/16 04:03:33;;;;;;;6.83;4.53;;;;;;;18.72;100.00;100430.43;1797208;77;21523;-87
2021/06/16 04:06:12;;;;;;;;;;;;;;;;;;;;;
2021/06/16 04:08:39;;;;;;;22.22;5.15;;;;;;;18.90;100.00;100440.73;1807794;77;21046;-87
2021/06/16 04:11:08;;;;;;;9.43;4.45;;;;;;;18.99;100.00;100437.56;1812429;77;21024;-88
2021/06/16 04:13:36;;;;;;;9.18;4.75;;;;;;;19.08;100.00;100435.20;1839585;77;21138;-89
2021/06/16 04:16:05;;;;;;;16.82;4.92;;;;;;;19.17;100.00;100438.11;1800137;78;21042;-87
2021/06/16 04:18:34;;;;;;;8.85;4.83;;;;;;;19.28;100.00;100434.70;1746186;80;21007;-89
2021/06/16 04:21:03;;;;;;;8.40;5.17;;;;;;;19.35;100.00;100429.04;1737727;80;21015;-88
2021/06/16 04:23:32;;;;;;;7.85;5.03;;;;;;;19.40;100.00;100437.27;1772722;80;21027;-88
2021/06/16 04:25:59;;;;;;;5.15;4.60;;;;;;;19.44;100.00;100436.41;1738540;80;21028;-89
2021/06/16 04:28:29;;;;;;;6.03;4.50;;;;;;;19.46;100.00;100443.16;1734320;80;21540;-90
2021/06/16 04:30:58;;;;;;;4.83;4.27;;;;;;;19.50;100.00;100439.17;1770226;80;21501;-90
2021/06/16 04:33:27;;;;;;;7.22;4.65;;;;;;;19.60;100.00;100434.11;1765686;80;21721;-88
2021/06/16 04:35:58;;;;;;;26.48;5.85;;;;;;;19.68;100.00;100436.67;1773400;80;21516;-89
2021/06/16 04:38:25;;;;;;;16.65;5.10;;;;;;;19.76;100.00;100437.11;1734704;80;21143;-89
2021/06/16 04:40:57;;;;;;;7.90;4.40;;;;;;;19.84;100.00;100435.71;1807850;77;21557;-89
2021/06/16 04:43:24;;;;;;;6.30;4.40;;;;;;;19.90;100.00;100435.02;1817361;77;21060;-88
2021/06/16 04:45:52;;;;;;;23.32;5.10;;;;;;;19.98;100.00;100427.00;1788973;78;21120;-90
2021/06/16 04:48:21;;;;;;;28.62;5.47;;;;;;;20.03;100.00;100432.25;1784737;79;21088;-89
2021/06/16 04:50:48;;;;;;;15.48;5.03;;;;;;;20.12;100.00;100439.91;1794146;77;21136;-89
2021/06/16 04:53:15;;;;;;;6.60;4.58;;;;;;;20.22;100.00;100442.26;1789854;78;21663;-88
2021/06/16 04:55:42;;;;;;;7.42;4.55;;;;;;;20.27;100.00;100443.84;1786128;78;21010;-89
2021/06/16 04:58:09;;;;;;;8.55;4.67;;;;;;;20.28;100.00;100442.84;1796094;78;20993;-89
2021/06/16 05:00:36;;;;;;;31.23;5.62;;;;;;;20.30;100.00;100450.61;1793549;77;21096;-87
2021/06/16 05:03:04;;;;;;;23.52;6.15;;;;;;;20.24;100.00;100449.52;1793747;78;21637;-87
2021/06/16 05:05:32;;;;;;;11.88;5.67;;;;;;;20.24;100.00;100448.68;1799449;77;21004;-88
2021/06/16 05:07:59;;;;;;;12.20;5.50;;;;;;;20.24;100.00;100454.80;1805399;77;21012;-89
2021/06/16 05:10:29;;;;;;;14.58;5.65;;;;;;;20.22;100.00;100454.16;1805017;77;21697;-88
2021/06/16 05:12:56;;;;;;;10.80;5.80;;;;;;;20.23;100.00;100456.31;1829623;77;21800;-89
2021/06/16 05:15:23;;;;;;;12.58;5.83;;;;;;;20.29;100.00;100457.70;1803151;77;21111;-88
2021/06/16 05:17:50;;;;;;;7.50;5.70;;;;;;;20.39;100.00;100457.93;1819670;77;20962;-89
2021/06/16 05:20:17;;;;;;;10.13;6.70;;;;;;;20.47;100.00;100461.28;1804556;77;21041;-89
2021/06/16 05:22:48;;;;;;;12.85;7.90;;;;;;;20.50;100.00;100461.44;1788307;79;21049;-88
2021/06/16 05:25:17;;;;;;;12.80;11.53;;;;;;;20.53;100.00;100466.86;1800924;77;21290;-88
2021/06/16 05:27:45;;;;;;;22.20;11.88;;;;;;;20.55;100.00;100472.27;1800361;77;21121;-88
2021/06/16 05:30:13;;;;;;;22.40;13.00;;;;;;;20.55;100.00;100465.66;1799294;77;21062;-89
2021/06/16 05:32:41;;;;;;;14.90;13.40;;;;;;;20.60;100.00;100467.75;1796057;78;21060;-88
2021/06/16 05:35:09;;;;;;;17.23;13.35;;;;;;;20.67;100.00;100471.81;1797152;77;21089;-87
2021/06/16 05:37:37;;;;;;;15.43;13.90;;;;;;;20.73;100.00;100477.19;1803726;77;21409;-88
2021/06/16 05:40:07;;;;;;;19.42;12.63;;;;;;;20.80;100.00;100471.98;1805623;78;21387;-89
2021/06/16 05:42:34;;;;;;;34.23;13.43;;;;;;;20.90;100.00;100477.81;1818807;77;21163;-89
2021/06/16 05:45:01;;;;;;;34.60;11.65;;;;;;;20.99;100.00;100475.86;1804560;78;21037;-89
2021/06/16 05:47:30;;;;;;;10.40;9.13;;;;;;;21.05;100.00;100479.59;1825851;77;21110;-90
2021/06/16 05:49:57;;;;;;;10.20;9.10;;;;;;;21.10;100.00;100487.77;1803413;77;21826;-88
2021/06/16 05:52:24;;;;;;;13.95;10.65;;;;;;;21.14;100.00;100493.02;1800247;78;21042;-89
2021/06/16 05:54:51;;;;;;;10.98;9.88;;;;;;;21.12;100.00;100495.03;1785543;77;21069;-89
2021/06/16 05:57:19;;;;;;;12.50;10.03;;;;;;;21.11;100.00;100496.03;1801451;78;21047;-88
2021/06/16 05:59:46;;;;;;;14.38;10.68;;;;;;;21.10;100.00;100501.84;1801279;78;21061;-89
2021/06/16 06:02:14;;;;;;;12.07;8.88;;;;;;;21.14;100.00;100506.75;1784274;79;21506;-89
2021/06/16 06:04:41;;;;;;;10.23;9.25;;;;;;;21.13;100.00;100509.91;1772645;79;20946;-88
2021/06/16 06:07:08;;;;;;;14.50;10.18;;;;;;;21.09;100.00;100516.09;1773904;79;21587;-88
2021/06/16 06:09:38;;;;;;;15.78;10.65;;;;;;;21.11;100.00;100513.23;1774846;79;20978;-90
2021/06/16 06:12:09;;;;;;;12.15;10.20;;;;;;;21.13;100.00;100519.17;1796839;78;20970;-89
2021/06/16 06:14:36;;;;;;;12.60;11.40;;;;;;;21.17;100.00;100518.30;1773624;79;21097;-88
2021/06/16 06:17:03;;;;;;;15.58;11.20;;;;;;;21.17;100.00;100521.75;1772822;78;21064;-87
2021/06/16 06:19:43;;;;;;;16.17;11.35;;;;;;;21.15;100.00;100525.11;1778308;78;21072;-88
2021/06/16 06:22:14;;;;;;;13.78;10.95;;;;;;;21.12;100.00;100539.52;1747822;79;21065;-88
2021/06/16 06:25:21;;;;;;;;;;;;;;;;;;;;;
2021/06/16 06:28:08;;;;;;;;;;;;;;;;;;;;;
2021/06/16 06:33:53;;;;;;;;;;;;;;;;;;;;;
2021/06/16 06:36:39;;;;;;;;;;;;;;;;;;;;;
2021/06/16 06:39:30;;;;;;;;;;;;;;;;;;;;;
2021/06/16 06:42:22;;;;;;;;;;;;;;;;;;;;;
2021/06/16 06:47:56;;;;;;;13.43;10.23;;;;;;;22.22;100.00;100514.61;1388143;102;21228;-88
2021/06/16 06:54:22;;;;;;;;;;;;;;;;;;;;;
2021/06/16 08:11:05;;;;;;;;;;;;;;;;;;;;;
2021/06/16 08:22:33;;;;;;;;;;;;;;;;;;;;;
2021/06/16 08:25:02;;;;;;;;;;;;;;;;;;;;;
2021/06/16 08:27:29;;;;;;;7.58;5.45;;;;;;;23.94;100.00;100547.72;1436240;98;21729;-89
2021/06/16 08:30:00;;;;;;;7.87;5.28;;;;;;;23.92;100.00;100539.62;1447140;96;21201;-88
2021/06/16 08:32:52;;;;;;;;;;;;;;;;;;;;;
2021/06/16 08:35:14;;;;;;;5.83;4.90;;;;;;;23.86;100.00;100535.94;1480097;93;21100;-87
2021/06/16 09:41:16;;;;;;;;;;;;;;;;;;;;;
2021/06/16 09:43:54;;;;;;;;;;;;;;;;;;;;;
2021/06/16 09:49:18;;;;;;;;;;;;;;;;;;;;;
2021/06/16 09:51:58;;;;;;;;;;;;;;;;;;;;;
2021/06/16 09:54:30;;;;;;;3.80;2.90;;;;;;;23.46;100.00;100576.61;1333361;105;21158;-87
2021/06/16 09:57:09;;;;;;;6.75;3.05;;;;;;;23.50;100.00;100574.86;1316798;107;21521;-88
2021/06/16 09:59:45;;;;;;;3.47;3.05;;;;;;;23.49;100.00;100579.37;1277278;110;21259;-87
2021/06/16 10:03:51;;;;;;;;;;;;;;;;;;;;;
2021/06/16 10:16:27;;;;;;;;;;;;;;;;;;;;;
2021/06/16 10:24:22;;;;;;;;;;;;;;;;;;;;;
2021/06/16 10:30:03;;;;;;;;;;;;;;;;;;;;;
2021/06/16 10:33:43;;;;;;;;;;;;;;;;;;;;;
2021/06/16 11:56:41;;;;;;;;;;;;;;;;;;;;;
2021/06/16 12:04:37;;;;;;;;;;;;;;;;;;;;;
2021/06/16 12:08:02;;;;;;;;;;;;;;;;;;;;;
2021/06/16 12:12:26;;;;;;;;;;;;;;;;;;;;;
2021/06/16 12:16:06;;;;;;;;;;;;;;;;;;;;;
2021/06/16 12:19:47;;;;;;;;;;;;;;;;;;;;;
2021/06/16 12:23:06;;;;;;;;;;;;;;;;;;;;;
2021/06/16 12:28:26;;;;;;;;;;;;;;;;;;;;;
2021/06/16 12:56:13;;;;;;;;;;;;;;;;;;;;;
2021/06/16 12:59:10;;;;;;;;;;;;;;;;;;;;;
2021/06/16 13:10:58;;;;;;;;;;;;;;;;;;;;;
2021/06/16 13:14:52;;;;;;;;;;;;;;;;;;;;;
2021/06/16 13:25:05;;;;;;;;;;;;;;;;;;;;;
2021/06/16 13:29:06;;;;;;;;;;;;;;;;;;;;;
2021/06/16 13:32:16;;;;;;;1.80;1.70;;;;;;;28.21;84.16;100516.12;1246237;111;21274;-87
2021/06/16 13:34:46;;;;;;;3.22;2.02;;;;;;;28.34;85.58;100518.52;1386603;97;21214;-86
2021/06/16 13:37:23;;;;;;;;;;;;;;;;;;;;;
2021/06/16 13:39:43;;;;;;;3.35;2.02;;;;;;;28.37;73.72;100507.06;1507607;90;21064;-88
2021/06/16 13:42:20;;;;;;;2.00;1.90;;;;;;;28.24;67.44;100512.98;1516357;90;21111;-88
2021/06/16 13:44:48;;;;;;;2.20;1.67;;;;;;;28.04;61.69;100503.96;1548562;90;21218;-88
2021/06/16 13:47:15;;;;;;;2.75;2.05;;;;;;;27.78;62.86;100507.91;1547405;90;21104;-87
2021/06/16 13:49:43;;;;;;;2.10;2.00;;;;;;;27.76;63.62;100502.00;1548410;90;21739;-88
2021/06/16 13:52:10;;;;;;;2.85;1.70;;;;;;;27.81;73.62;100498.89;1496983;92;21178;-87
2021/06/16 13:54:37;;;;;;;1.87;1.70;;;;;;;27.83;67.79;100492.80;1510450;93;21173;-88
2021/06/16 13:57:04;;;;;;;2.37;2.17;;;;;;;27.98;72.81;100497.68;1529929;91;21098;-86
2021/06/16 13:59:31;;;;;;;2.47;1.90;;;;;;;28.18;74.29;100494.66;1509684;92;21164;-87
2021/06/16 14:01:58;;;;;;;2.15;1.92;;;;;;;28.32;73.16;100491.70;1575919;88;21685;-88
2021/06/16 14:04:26;;;;;;;3.27;1.80;;;;;;;28.18;73.15;100501.86;1568363;89;21189;-87
2021/06/16 14:06:53;;;;;;;2.75;1.90;;;;;;;28.01;72.75;100500.41;1561160;89;21157;-87
2021/06/16 14:09:20;;;;;;;3.25;1.85;;;;;;;27.95;76.63;100504.03;1574808;89;21102;-89
2021/06/16 14:11:47;;;;;;;2.85;1.80;;;;;;;27.89;76.16;100499.59;1581749;89;21078;-87
2021/06/16 14:14:14;;;;;;;2.90;2.02;;;;;;;27.93;85.86;100496.75;1584192;89;21594;-86
2021/06/16 14:16:41;;;;;;;2.47;2.00;;;;;;;28.06;83.77;100499.20;1576607;89;21141;-87
2021/06/16 14:19:09;;;;;;;2.37;1.80;;;;;;;28.22;85.12;100493.66;1566933;89;21181;-87
2021/06/16 14:21:36;;;;;;;3.05;1.72;;;;;;;28.38;85.81;100499.32;1611186;81;21084;-86
2021/06/16 14:24:03;;;;;;;1.75;1.65;;;;;;;28.52;85.42;100502.02;1691734;81;21002;-88
2021/06/16 14:26:30;;;;;;;4.80;1.70;;;;;;;28.67;88.85;100502.02;1704929;81;21196;-87
2021/06/16 14:28:57;;;;;;;2.30;1.95;;;;;;;28.75;82.61;100501.16;1695714;82;21195;-87
2021/06/16 14:31:25;;;;;;;1.98;1.87;;;;;;;28.79;73.02;100505.50;1713331;81;21888;-87
2021/06/16 14:33:53;;;;;;;1.77;1.67;;;;;;;28.71;72.90;100503.20;1731988;81;21018;-87
2021/06/16 14:36:21;;;;;;;2.60;1.98;;;;;;;28.60;80.49;100500.30;1692093;82;21105;-87
2021/06/16 14:38:48;;;;;;;2.15;1.98;;;;;;;28.46;82.73;100498.95;1664097;83;21050;-86
2021/06/16 14:41:15;;;;;;;2.08;1.85;;;;;;;28.32;82.24;100497.06;1667517;83;21660;-86
2021/06/16 14:43:43;;;;;;;3.52;2.22;;;;;;;28.12;72.29;100494.77;1691622;83;21175;-88
2021/06/16 14:46:10;;;;;;;2.05;1.72;;;;;;;27.88;79.34;100500.66;1667649;83;21694;-88
2021/06/16 14:48:38;;;;;;;2.30;2.10;;;;;;;27.70;77.17;100497.85;1665934;83;20998;-87
2021/06/16 14:51:06;;;;;;;2.40;2.20;;;;;;;27.63;82.57;100492.34;1688417;83;21592;-88
2021/06/16 14:53:33;;;;;;;3.08;1.82;;;;;;;27.73;87.51;100495.23;1641573;83;21038;-86
2021/06/16 14:56:02;;;;;;;2.05;1.85;;;;;;;27.86;86.93;100497.69;1666734;83;21538;-87
2021/06/16 14:58:30;;;;;;;5.47;2.08;;;;;;;28.00;87.36;100491.55;1685212;83;21113;-86
2021/06/16 15:00:57;;;;;;;6.40;2.05;;;;;;;28.10;87.30;100499.03;1662248;84;21570;-87
2021/06/16 15:03:24;;;;;;;2.35;2.15;;;;;;;28.14;76.36;100494.02;1665707;83;21105;-87
2021/06/16 15:05:51;;;;;;;2.77;2.10;;;;;;;28.10;68.29;100499.54;1666489;83;21015;-88
2021/06/16 15:08:18;;;;;;;3.37;2.10;;;;;;;28.02;77.44;100492.13;1666040;83;21857;-88
2021/06/16 15:10:45;;;;;;;3.55;2.30;;;;;;;27.98;74.75;100490.16;1692531;82;21049;-87
2021/06/16 15:13:13;;;;;;;3.05;2.00;;;;;;;27.92;71.32;100489.26;1692996;82;21638;-87
2021/06/16 15:15:40;;;;;;;2.35;2.15;;;;;;;27.93;71.57;100495.41;1678552;83;21141;-86
2021/06/16 15:18:08;;;;;;;3.05;1.85;;;;;;;27.96;75.85;100494.41;1741799;80;21088;-87
2021/06/16 15:20:35;;;;;;;3.35;1.70;;;;;;;27.97;72.91;100496.55;1697789;82;21076;-88
2021/06/16 15:23:02;;;;;;;2.10;1.90;;;;;;;27.97;74.52;100502.73;1707014;81;21970;-86
2021/06/16 15:25:31;;;;;;;2.30;1.82;;;;;;;28.02;79.95;100496.69;1691390;83;21487;-88
2021/06/16 15:28:01;;;;;;;2.00;1.90;;;;;;;28.08;74.84;100510.48;1711117;82;21092;-86
2021/06/16 15:30:27;;;;;;;3.33;2.08;;;;;;;28.16;76.18;100508.80;1676308;83;21544;-87
2021/06/16 15:32:54;;;;;;;5.83;2.20;;;;;;;28.20;76.77;100510.47;1715037;81;21079;-87
2021/06/16 15:35:25;;;;;;;2.83;2.15;;;;;;;28.15;73.79;100513.05;1733535;81;21575;-88
2021/06/16 15:38:05;;;;;;;3.95;2.33;;;;;;;28.13;76.01;100520.49;1716079;82;20994;-86
2021/06/16 15:40:25;;;;;;;2.40;2.20;;;;;;;28.14;78.67;100524.80;1701647;82;21066;-89
2021/06/16 15:42:52;;;;;;;5.25;2.25;;;;;;;28.17;78.98;100522.97;1743798;80;21255;-86
2021/06/16 15:45:19;;;;;;;5.15;2.35;;;;;;;28.20;80.71;100531.08;1717749;82;21158;-86
2021/06/16 15:47:49;;;;;;;25.27;3.75;;;;;;;28.16;76.53;100532.08;1703875;83;21150;-86
2021/06/16 15:50:16;;;;;;;7.15;3.22;;;;;;;28.09;82.74;100534.87;1684139;82;21022;-87
2021/06/16 15:52:44;;;;;;;6.95;2.20;;;;;;;28.00;79.97;100539.71;1677134;82;21474;-87
2021/06/16 15:55:12;;;;;;;15.65;3.02;;;;;;;27.96;85.19;100543.11;1722449;82;20999;-88
2021/06/16 15:57:39;;;;;;;6.37;2.60;;;;;;;27.96;92.07;100542.58;1684972;83;21836;-87
2021/06/16 16:00:07;;;;;;;3.80;2.30;;;;;;;27.94;84.85;100539.31;1730584;81;21081;-86
2021/06/16 16:02:36;;;;;;;5.03;2.08;;;;;;;27.92;78.76;100541.43;1707967;81;21065;-88
2021/06/16 16:05:03;;;;;;;2.62;2.27;;;;;;;27.87;83.13;100549.32;1696867;82;21098;-87
2021/06/16 16:07:30;;;;;;;3.62;2.40;;;;;;;27.81;86.47;100551.59;1721487;81;21014;-87
2021/06/16 16:09:58;;;;;;;3.67;2.20;;;;;;;27.70;89.50;100550.01;1726805;82;21134;-86
2021/06/16 16:12:30;;;;;;;7.83;2.45;;;;;;;27.61;91.14;100556.73;1700239;82;21117;-87
2021/06/16 16:14:54;;;;;;;5.22;2.52;;;;;;;27.50;89.23;100558.34;1695022;82;21528;-86
2021/06/16 16:17:21;;;;;;;2.15;2.05;;;;;;;27.38;93.12;100551.61;1699154;82;21113;-87
2021/06/16 16:19:48;;;;;;;3.45;2.40;;;;;;;27.30;95.23;100559.16;1694736;82;21532;-86
2021/06/16 16:22:15;;;;;;;3.70;2.30;;;;;;;27.19;99.85;100556.74;1707217;82;21053;-87
2021/06/16 16:24:43;;;;;;;4.75;2.60;;;;;;;27.11;94.18;100566.41;1731016;82;21572;-86
2021/06/16 16:27:10;;;;;;;11.63;2.90;;;;;;;27.04;100.00;100564.62;1698341;82;21085;-87
2021/06/16 16:29:37;;;;;;;5.28;2.35;;;;;;;26.98;100.00;100561.53;1693419;82;21098;-86
2021/06/16 16:32:04;;;;;;;5.40;2.42;;;;;;;26.85;100.00;100562.52;1697422;82;21031;-87
2021/06/16 16:34:31;;;;;;;9.75;2.52;;;;;;;26.66;100.00;100564.89;1701663;82;21082;-87
2021/06/16 16:36:58;;;;;;;25.55;3.55;;;;;;;26.49;100.00;100572.67;1725560;82;21494;-87
2021/06/16 16:39:25;;;;;;;12.88;2.87;;;;;;;26.34;100.00;100571.19;1702262;82;21117;-88
2021/06/16 16:41:52;;;;;;;12.13;3.08;;;;;;;26.22;100.00;100572.44;1702356;82;21081;-87
2021/06/16 16:44:21;;;;;;;17.40;2.98;;;;;;;26.13;100.00;100574.58;1705177;82;21051;-87
2021/06/16 16:46:48;;;;;;;5.95;2.50;;;;;;;25.99;100.00;100569.05;1723359;82;21950;-87
2021/06/16 16:49:15;;;;;;;7.62;2.60;;;;;;;25.81;100.00;100577.30;1725130;82;21010;-87
2021/06/16 16:51:43;;;;;;;18.48;4.53;;;;;;;25.62;100.00;100576.92;1712255;82;21236;-86
2021/06/16 16:54:15;;;;;;;13.90;3.12;;;;;;;25.40;100.00;100575.95;1725156;81;21125;-86
2021/06/16 16:56:41;;;;;;;15.45;3.33;;;;;;;25.20;100.00;100578.17;1696963;82;21537;-86
2021/06/16 16:59:08;;;;;;;15.10;3.70;;;;;;;25.03;100.00;100574.39;1723069;82;21137;-88
2021/06/16 17:01:35;;;;;;;22.17;4.20;;;;;;;24.87;100.00;100575.67;1699630;82;21100;-87
2021/06/16 17:04:03;;;;;;;17.77;3.87;;;;;;;24.70;100.00;100578.00;1735073;80;21085;-87
2021/06/16 17:06:30;;;;;;;16.35;3.52;;;;;;;24.53;100.00;100574.94;1741452;80;21022;-87
2021/06/16 17:08:58;;;;;;;16.67;4.35;;;;;;;24.40;100.00;100578.44;1717857;81;21136;-86
2021/06/16 17:11:25;;;;;;;10.70;3.60;;;;;;;24.29;100.00;100573.25;1744344;80;21058;-88
2021/06/16 17:13:53;;;;;;;14.43;3.98;;;;;;;24.18;100.00;100571.23;1732064;81;21046;-87
2021/06/16 17:16:21;;;;;;;25.17;4.87;;;;;;;24.10;100.00;100573.58;1734254;81;21600;-88
2021/06/16 17:18:48;;;;;;;20.25;4.50;;;;;;;24.02;100.00;100573.80;1697751;81;21075;-87
2021/06/16 17:21:16;;;;;;;17.12;4.00;;;;;;;23.97;100.00;100581.05;1693051;82;20990;-86
2021/06/16 17:23:44;;;;;;;20.55;4.33;;;;;;;23.92;100.00;100578.97;1714674;82;21111;-87
2021/06/16 17:26:11;;;;;;;13.62;3.70;;;;;;;23.88;100.00;100583.08;1729767;81;21006;-88
2021/06/16 17:28:39;;;;;;;5.37;3.65;;;;;;;23.81;100.00;100582.27;1673999;82;21545;-87
2021/06/16 17:31:07;;;;;;;5.55;4.05;;;;;;;23.76;100.00;100590.02;1709636;82;21580;-88
2021/06/16 17:33:35;;;;;;;7.85;5.03;;;;;;;23.70;100.00;100590.34;1699024;82;22088;-87
2021/06/16 17:36:05;;;;;;;10.63;5.28;;;;;;;23.68;100.00;100581.73;1736555;81;21139;-88
2021/06/16 17:38:34;;;;;;;5.97;5.23;;;;;;;23.65;100.00;100581.33;1672158;82;21632;-86